Time;durP1;ratioP1;P1;durP2;ratioP2;P2;SDS_P1;SDS_P2;PMS_P1;PMS_P2;Temp;Humidity;BMP_temperature;BMP_pressure;BME280_temperature;BME280_humidity;BME280_pressure;Samples;Min_cycle;Max_cycle;Signal;HPM_P1;HPM_P2
2022/08/11 00:01:25;;;;;;;3.10;2.80;;;21.00;69.10;;;;;;5036370;28;20402;-70
2022/08/11 00:03:59;;;;;;;5.10;2.57;;;20.90;69.50;;;;;;5036033;28;20445;-70
2022/08/11 00:06:29;;;;;;;3.33;2.73;;;21.00;69.20;;;;;;5035715;28;20406;-70
2022/08/11 00:08:56;;;;;;;3.23;2.80;;;20.90;69.70;;;;;;5035523;28;20449;-70
2022/08/11 00:11:32;;;;;;;4.33;2.93;;;20.80;69.80;;;;;;5035575;28;20930;-70
2022/08/11 00:13:59;;;;;;;3.20;2.33;;;20.80;70.10;;;;;;5035649;28;20488;-70
2022/08/11 00:16:25;;;;;;;4.73;2.80;;;20.70;70.10;;;;;;5035931;28;20446;-70
2022/08/11 00:18:53;;;;;;;3.17;2.70;;;20.70;70.10;;;;;;5035496;28;20536;-70
2022/08/11 00:21:21;;;;;;;2.83;2.30;;;20.60;70.80;;;;;;5035079;28;20915;-70
2022/08/11 00:23:54;;;;;;;4.13;2.83;;;20.60;70.80;;;;;;5035473;28;20406;-70
2022/08/11 00:26:22;;;;;;;4.50;2.20;;;20.60;70.90;;;;;;5035264;28;20413;-70
2022/08/11 00:28:50;;;;;;;2.70;2.50;;;20.50;70.80;;;;;;5035286;28;20938;-70
2022/08/11 00:31:34;;;;;;;3.00;2.63;;;20.40;71.00;;;;;;5035347;28;20417;-70
2022/08/11 00:34:01;;;;;;;2.43;2.23;;;20.50;71.80;;;;;;5035243;28;20776;-70
2022/08/11 00:36:38;;;;;;;3.40;2.00;;;20.40;71.30;;;;;;5034143;28;20418;-71
2022/08/11 00:39:05;;;;;;;2.97;2.40;;;20.40;71.40;;;;;;5035079;28;20418;-69
2022/08/11 00:42:02;;;;;;;4.10;2.50;;;20.50;71.50;;;;;;5035174;28;20452;-70
2022/08/11 00:44:56;;;;;;;2.93;2.40;;;20.40;71.70;;;;;;5034972;28;20433;-70
2022/08/11 00:47:30;;;;;;;6.00;2.57;;;20.40;71.90;;;;;;5034222;28;20517;-71
2022/08/11 00:50:29;;;;;;;2.10;1.93;;;20.40;72.10;;;;;;5034897;28;20779;-70
2022/08/11 00:53:35;;;;;;;2.83;2.53;;;20.30;72.20;;;;;;5035608;28;20409;-70
2022/08/11 00:56:59;;;;;;;2.40;2.03;;;20.30;72.50;;;;;;5034086;28;20872;-71
2022/08/11 00:59:52;;;;;;;2.87;2.63;;;20.20;73.20;;;;;;4915273;29;20472;-70
2022/08/11 01:02:39;;;;;;;2.23;2.03;;;20.00;73.50;;;;;;4955225;29;20489;-70
2022/08/11 01:05:29;;;;;;;3.07;2.13;;;20.00;73.90;;;;;;5000432;28;20453;-70
2022/08/11 01:08:10;;;;;;;4.57;2.70;;;20.10;74.20;;;;;;5034708;28;20446;-70
2022/08/11 01:11:01;;;;;;;2.53;2.33;;;20.00;74.10;;;;;;5034427;28;20402;-70
2022/08/11 01:14:00;;;;;;;2.63;2.17;;;20.10;74.10;;;;;;5034689;28;20382;-70
2022/08/11 01:16:38;;;;;;;2.60;2.40;;;20.10;74.00;;;;;;5032483;28;20777;-71
2022/08/11 01:19:26;;;;;;;2.53;2.33;;;20.20;74.20;;;;;;5014526;28;20415;-71
2022/08/11 01:22:22;;;;;;;3.90;2.67;;;20.20;74.20;;;;;;5014938;28;20456;-70
2022/08/11 01:25:15;;;;;;;5.03;2.80;;;20.20;74.50;;;;;;5014902;28;20387;-70
2022/08/11 01:28:05;;;;;;;3.63;2.50;;;20.10;74.70;;;;;;5014670;28;20426;-70
2022/08/11 01:30:38;;;;;;;4.47;2.73;;;20.10;75.10;;;;;;5014712;28;20442;-69
2022/08/11 01:33:22;;;;;;;2.30;2.10;;;20.10;75.10;;;;;;5014345;28;20824;-70
2022/08/11 01:36:00;;;;;;;4.47;2.70;;;20.00;75.50;;;;;;5026706;28;20476;-70
2022/08/11 01:38:25;;;;;;;3.00;2.10;;;19.90;76.10;;;;;;5014114;28;20825;-70
2022/08/11 01:40:51;;;;;;;2.90;2.00;;;19.80;76.60;;;;;;5014268;28;20432;-70
2022/08/11 01:46:45;;;;;;;2.60;2.10;;;19.70;77.10;;;;;;5034362;28;20159;-70
2022/08/11 01:49:45;;;;;;;2.80;2.60;;;19.80;77.80;;;;;;5034005;28;20401;-70
2022/08/11 01:52:23;;;;;;;2.70;2.50;;;19.80;77.80;;;;;;5034388;28;20407;-70
2022/08/11 01:55:13;;;;;;;3.03;2.73;;;19.60;78.40;;;;;;5034184;28;20450;-70
2022/08/11 01:57:53;;;;;;;3.53;3.23;;;19.50;79.40;;;;;;5016752;28;20947;-70
2022/08/11 02:00:21;;;;;;;3.30;2.80;;;19.40;80.00;;;;;;5033583;28;20394;-70
2022/08/11 02:03:20;;;;;;;4.00;2.53;;;19.40;80.40;;;;;;5033540;28;20410;-70
2022/08/11 02:06:53;;;;;;;3.00;2.77;;;19.50;80.50;;;;;;5033080;28;20414;-70
2022/08/11 02:09:06;;;;;;;2.50;2.30;;;19.40;81.00;;;;;;5033129;28;20840;-70
2022/08/11 02:11:36;;;;;;;2.77;2.50;;;19.40;81.50;;;;;;5033939;28;20405;-70
2022/08/11 02:14:04;;;;;;;2.93;2.63;;;19.60;81.60;;;;;;5033447;28;20445;-70
2022/08/11 02:16:33;;;;;;;3.17;2.70;;;19.60;81.50;;;;;;5033312;28;20425;-69
2022/08/11 02:25:34;;;;;;;2.60;2.40;;;19.80;81.80;;;;;;5033475;28;20760;-71
2022/08/11 02:28:12;;;;;;;3.10;2.80;;;19.60;82.40;;;;;;5033460;28;20878;-70
2022/08/11 02:33:21;;;;;;;3.40;2.57;;;19.50;83.50;;;;;;5033751;28;20787;-70
2022/08/11 02:33:40;;;;;;;3.77;3.20;;;19.50;83.70;;;;;;5032707;28;20414;-70
2022/08/11 02:36:14;;;;;;;3.33;3.10;;;19.70;83.20;;;;;;5032885;28;20477;-70
2022/08/11 02:38:45;;;;;;;5.97;3.83;;;19.80;82.90;;;;;;5033126;28;20481;-70
2022/08/11 02:44:15;;;;;;;3.97;2.83;;;19.90;83.30;;;;;;5014039;28;20370;-70
2022/08/11 02:47:22;;;;;;;5.60;3.23;;;19.90;83.50;;;;;;5013976;28;20395;-69
2022/08/11 02:50:10;;;;;;;2.93;2.73;;;19.70;84.00;;;;;;5000303;28;20418;-70
2022/08/11 02:52:44;;;;;;;2.63;2.40;;;19.70;84.70;;;;;;5033079;28;20469;-69
2022/08/11 02:55:31;;;;;;;4.67;2.90;;;19.60;85.60;;;;;;5032820;28;20961;-72
2022/08/11 02:58:36;;;;;;;4.63;2.77;;;19.50;85.90;;;;;;5031813;28;20434;-70
2022/08/11 03:01:27;;;;;;;6.10;3.50;;;19.50;86.90;;;;;;5032846;28;20405;-71
2022/08/11 03:04:02;;;;;;;4.00;3.20;;;19.40;87.40;;;;;;5032742;28;20732;-70
2022/08/11 03:06:58;;;;;;;4.13;3.10;;;19.30;88.20;;;;;;5033232;28;20370;-71
2022/08/11 03:09:45;;;;;;;4.00;3.30;;;19.20;89.60;;;;;;5033182;28;20395;-70
2022/08/11 03:18:36;;;;;;;3.50;3.20;;;18.80;90.80;;;;;;5032883;28;20555;-70
2022/08/11 03:21:20;;;;;;;3.10;2.90;;;18.90;91.00;;;;;;5036297;28;20891;-70
2022/08/11 03:24:05;;;;;;;3.20;2.87;;;18.90;91.50;;;;;;5036843;28;20402;-70
2022/08/11 03:26:52;;;;;;;4.23;3.20;;;18.90;91.70;;;;;;5036543;28;20390;-70
2022/08/11 03:29:30;;;;;;;3.70;3.37;;;18.80;92.00;;;;;;4976045;28;20484;-70
2022/08/11 03:32:05;;;;;;;3.37;3.07;;;18.80;92.40;;;;;;5016991;28;20911;-70
2022/08/11 03:34:36;;;;;;;3.93;3.33;;;18.70;92.80;;;;;;5016885;28;20465;-70
2022/08/11 03:41:41;;;;;;;2.90;2.70;;;18.70;93.30;;;;;;5036981;28;20429;-70
2022/08/11 03:43:44;;;;;;;4.00;3.00;;;18.60;93.70;;;;;;5036116;28;20418;-70
2022/08/11 03:46:18;;;;;;;3.57;3.27;;;18.60;94.00;;;;;;5031078;28;20406;-70
2022/08/11 03:48:59;;;;;;;3.63;3.33;;;18.50;94.10;;;;;;5036454;28;20461;-70
2022/08/11 03:51:44;;;;;;;4.80;2.80;;;18.60;94.30;;;;;;5036871;28;20387;-70
2022/08/11 03:54:44;;;;;;;3.30;3.00;;;18.60;94.40;;;;;;5036029;28;20974;-70
2022/08/11 03:57:19;;;;;;;4.07;3.20;;;18.50;94.80;;;;;;5035827;28;20422;-70
2022/08/11 04:00:09;;;;;;;3.37;3.07;;;18.40;95.20;;;;;;5036212;28;20828;-70
2022/08/11 04:03:09;;;;;;;3.10;2.80;;;18.40;95.60;;;;;;5036237;28;20806;-70
2022/08/11 04:06:08;;;;;;;3.47;3.13;;;18.50;95.70;;;;;;5035712;28;20822;-70
2022/08/11 04:09:15;;;;;;;4.00;3.60;;;18.30;95.70;;;;;;5034782;28;20449;-70
2022/08/11 04:12:23;;;;;;;3.60;3.30;;;18.30;96.20;;;;;;4990078;28;20442;-70
2022/08/11 04:18:32;;;;;;;3.97;3.23;;;18.30;96.80;;;;;;5016406;28;20990;-70
2022/08/11 04:21:47;;;;;;;3.50;3.20;;;18.30;96.80;;;;;;5016419;28;20466;-70
2022/08/11 04:24:37;;;;;;;4.43;3.53;;;18.30;97.10;;;;;;5015678;28;20934;-70
2022/08/11 04:27:23;;;;;;;4.00;3.70;;;18.20;97.40;;;;;;5015723;28;20394;-70
2022/08/11 04:30:09;;;;;;;4.77;4.03;;;18.30;97.20;;;;;;5016089;28;20387;-70
2022/08/11 04:32:52;;;;;;;3.60;3.30;;;18.30;97.40;;;;;;5015061;28;20413;-70
2022/08/11 04:35:42;;;;;;;8.70;3.20;;;18.20;97.70;;;;;;5018289;28;20478;-70
2022/08/11 04:38:28;;;;;;;3.70;3.40;;;18.20;97.70;;;;;;5034083;28;20441;-70
2022/08/11 04:41:32;;;;;;;5.87;3.83;;;18.20;97.70;;;;;;5035509;28;20797;-70
2022/08/11 04:44:28;;;;;;;3.53;3.07;;;18.30;97.80;;;;;;5034042;28;20424;-70
2022/08/11 04:47:02;;;;;;;4.33;3.97;;;18.30;98.10;;;;;;5035671;28;20452;-70
2022/08/11 05:02:16;;;;;;;4.40;3.93;;;18.20;98.90;;;;;;5015260;28;20394;-70
2022/08/11 05:08:02;;;;;;;4.53;4.13;;;18.40;99.00;;;;;;5032104;23;20440;-66
2022/08/11 05:11:04;;;;;;;4.03;3.63;;;18.50;98.80;;;;;;5034832;28;20414;-67
2022/08/11 05:37:13;;;;;;;3.70;3.40;;;19.10;99.00;;;;;;5028928;28;20492;-67
2022/08/11 05:56:48;;;;;;;4.10;3.80;;;19.70;97.70;;;;;;5014270;28;20386;-68
2022/08/11 05:59:17;;;;;;;3.43;3.13;;;19.80;97.60;;;;;;4995994;28;20824;-66
2022/08/11 06:01:44;;;;;;;3.60;3.30;;;19.90;97.30;;;;;;5013968;28;20502;-68
2022/08/11 06:04:22;;;;;;;4.23;3.63;;;20.10;97.10;;;;;;5013528;28;20859;-66
2022/08/11 06:06:53;;;;;;;4.23;3.83;;;20.40;96.80;;;;;;5014084;28;20935;-67
2022/08/11 06:09:25;;;;;;;3.90;3.60;;;20.50;96.60;;;;;;5013360;28;20521;-66
2022/08/11 06:11:52;;;;;;;9.93;4.10;;;20.60;96.00;;;;;;5017548;28;20422;-67
2022/08/11 06:14:20;;;;;;;9.33;4.10;;;20.70;95.90;;;;;;5033413;28;20491;-68
2022/08/11 06:16:52;;;;;;;3.90;3.53;;;20.80;95.50;;;;;;5033367;28;20442;-67
2022/08/11 06:19:22;;;;;;;6.47;3.80;;;21.00;95.20;;;;;;5031797;28;21015;-67
2022/08/11 06:21:50;;;;;;;4.97;4.13;;;21.10;94.60;;;;;;5033383;28;20410;-67
2022/08/11 06:24:17;;;;;;;5.50;5.00;;;21.20;94.80;;;;;;5033157;28;20782;-66
2022/08/11 06:26:52;;;;;;;5.80;3.80;;;21.30;93.90;;;;;;5032924;28;20417;-68
2022/08/11 06:29:18;;;;;;;4.20;3.80;;;21.40;94.90;;;;;;5033119;28;20795;-67
2022/08/11 06:31:58;;;;;;;4.80;4.23;;;21.50;93.90;;;;;;5032885;28;20402;-67
2022/08/11 06:34:36;;;;;;;6.30;4.33;;;21.60;92.80;;;;;;5032201;28;20594;-65
2022/08/11 06:37:43;;;;;;;6.07;4.20;;;21.60;92.80;;;;;;5032891;28;20760;-66
2022/08/11 06:40:36;;;;;;;6.83;4.60;;;21.70;92.30;;;;;;5012194;28;20415;-69
2022/08/11 06:43:10;;;;;;;5.67;4.40;;;21.80;91.40;;;;;;5013125;28;20521;-66
2022/08/11 06:45:52;;;;;;;5.17;4.17;;;21.50;91.90;;;;;;5013043;28;20398;-68
2022/08/11 06:48:20;;;;;;;4.87;4.13;;;21.70;91.90;;;;;;5032424;28;20410;-67
2022/08/11 06:53:56;;;;;;;6.13;4.43;;;21.80;91.50;;;;;;5032471;28;20918;-67
2022/08/11 07:02:14;;;;;;;6.13;4.23;;;21.80;90.80;;;;;;5035452;28;20417;-67
2022/08/11 07:04:51;;;;;;;4.53;4.03;;;21.50;91.00;;;;;;5017508;28;20414;-68
2022/08/11 07:16:18;;;;;;;3.93;3.53;;;22.00;90.50;;;;;;5016903;28;20434;-66
2022/08/11 07:30:09;;;;;;;5.37;4.87;;;23.10;88.10;;;;;;5036629;28;20898;-68
2022/08/11 07:32:50;;;;;;;4.77;4.27;;;23.10;86.30;;;;;;5035915;28;20402;-72
2022/08/11 07:35:20;;;;;;;5.50;3.30;;;23.30;86.60;;;;;;5036215;28;20469;-67
2022/08/11 07:37:52;;;;;;;5.67;4.10;;;23.40;85.80;;;;;;5034989;28;20435;-67
2022/08/11 07:40:24;;;;;;;4.03;3.37;;;23.40;85.00;;;;;;5035728;28;20436;-67
2022/08/11 07:42:52;;;;;;;4.23;3.93;;;23.30;86.40;;;;;;5036404;28;20887;-67
2022/08/11 07:53:36;;;;;;;4.10;3.60;;;23.50;84.60;;;;;;5034668;28;20472;-68
2022/08/11 07:56:05;;;;;;;5.13;3.87;;;23.60;84.20;;;;;;5035453;28;20802;-67
2022/08/11 08:18:01;;;;;;;4.40;3.93;;;24.00;81.00;;;;;;5035664;28;20567;-67
2022/08/11 08:20:44;;;;;;;5.73;3.40;;;24.20;81.30;;;;;;5035652;28;20410;-66
2022/08/11 08:23:10;;;;;;;6.10;3.53;;;24.40;79.90;;;;;;5035166;28;20495;-67
2022/08/11 08:25:39;;;;;;;4.17;3.63;;;24.50;79.40;;;;;;5035514;28;20425;-67
2022/08/11 08:28:08;;;;;;;4.10;3.70;;;24.40;78.70;;;;;;5035432;28;20432;-67
2022/08/11 08:30:49;;;;;;;4.10;3.20;;;24.60;77.50;;;;;;5035552;28;20781;-67
2022/08/11 08:33:26;;;;;;;5.00;3.43;;;24.60;77.50;;;;;;5035550;28;20553;-68
2022/08/11 08:36:10;;;;;;;4.30;3.90;;;24.70;76.90;;;;;;5035555;28;20948;-67
2022/08/11 08:38:39;;;;;;;4.73;3.40;;;24.50;75.70;;;;;;5034026;28;20441;-67
2022/08/11 08:41:06;;;;;;;3.40;3.10;;;24.60;75.80;;;;;;5035410;28;20436;-67
2022/08/11 08:43:35;;;;;;;4.50;3.37;;;24.80;74.20;;;;;;5036566;28;20491;-67
2022/08/11 08:46:06;;;;;;;4.53;3.97;;;24.80;74.10;;;;;;5036802;28;20912;-68
2022/08/11 08:48:33;;;;;;;3.97;3.30;;;24.80;73.80;;;;;;5034828;28;20872;-68
2022/08/11 08:54:00;;;;;;;3.80;3.40;;;24.80;73.70;;;;;;5035211;28;20408;-67
2022/08/11 08:56:27;;;;;;;3.13;2.93;;;25.00;73.40;;;;;;5034769;28;20389;-67
2022/08/11 08:58:55;;;;;;;3.30;3.10;;;25.20;72.20;;;;;;5034839;28;20426;-66
2022/08/11 09:01:24;;;;;;;3.57;3.27;;;25.10;72.70;;;;;;5034681;28;20405;-67
2022/08/11 09:03:50;;;;;;;3.33;3.13;;;25.20;72.30;;;;;;5034000;28;20410;-66
2022/08/11 09:06:17;;;;;;;3.50;3.20;;;25.30;71.30;;;;;;5034943;28;20765;-68
2022/08/11 09:08:44;;;;;;;3.53;2.93;;;25.30;71.00;;;;;;5033410;28;20460;-66
2022/08/11 09:13:55;;;;;;;4.30;2.90;;;25.60;69.40;;;;;;5034738;28;20389;-67
2022/08/11 09:16:23;;;;;;;4.20;2.77;;;25.70;69.40;;;;;;5034587;28;20804;-67
2022/08/11 09:18:50;;;;;;;4.03;3.40;;;25.90;68.40;;;;;;5033554;28;20488;-67
2022/08/11 09:21:21;;;;;;;3.03;2.73;;;26.20;68.00;;;;;;5034452;28;20406;-68
2022/08/11 09:29:20;;;;;;;3.07;2.73;;;26.10;65.00;;;;;;5034432;28;20428;-65
2022/08/11 09:31:46;;;;;;;4.60;2.50;;;26.10;65.10;;;;;;5034426;28;20402;-67
2022/08/11 09:34:13;;;;;;;9.13;2.80;;;26.30;64.50;;;;;;5034074;28;20523;-66
2022/08/11 09:42:14;;;;;;;4.73;2.90;;;26.30;63.30;;;;;;5034755;28;20445;-67
2022/08/11 09:44:47;;;;;;;4.73;3.07;;;26.40;63.80;;;;;;5033264;28;20790;-67
2022/08/11 09:47:24;;;;;;;3.10;2.70;;;26.50;63.30;;;;;;5033756;28;20822;-67
2022/08/11 09:49:58;;;;;;;3.60;2.73;;;26.60;61.30;;;;;;5034652;28;20878;-66
2022/08/11 09:52:25;;;;;;;2.97;2.73;;;26.50;60.30;;;;;;5034000;28;20948;-66
2022/08/11 09:54:52;;;;;;;4.63;2.53;;;26.70;60.00;;;;;;5031416;28;20446;-67
2022/08/11 10:00:09;;;;;;;2.53;2.33;;;26.90;59.20;;;;;;5033877;28;20388;-68
2022/08/11 10:02:49;;;;;;;2.60;2.40;;;27.00;58.70;;;;;;5033437;28;20418;-67
2022/08/11 10:08:04;;;;;;;2.70;2.50;;;26.80;59.20;;;;;;5033798;28;20860;-67
2022/08/11 10:10:35;;;;;;;3.10;2.80;;;26.80;58.70;;;;;;5033933;28;20872;-68
2022/08/11 10:13:05;;;;;;;3.67;2.83;;;26.90;58.50;;;;;;5032482;28;20418;-67
2022/08/11 10:15:36;;;;;;;3.87;2.37;;;27.00;59.00;;;;;;5033800;28;20449;-68
2022/08/11 10:21:02;;;;;;;2.67;2.47;;;27.20;57.00;;;;;;5033898;28;20433;-68
2022/08/11 10:33:58;;;;;;;2.90;2.40;;;27.30;58.00;;;;;;5034030;28;20428;-67
2022/08/11 10:34:39;;;;;;;2.30;2.10;;;27.70;56.40;;;;;;5033983;28;20555;-68
2022/08/11 10:37:06;;;;;;;3.03;2.83;;;27.80;54.30;;;;;;5034365;28;20406;-67
2022/08/11 10:39:34;;;;;;;3.23;2.87;;;27.40;55.40;;;;;;5032550;28;20442;-67
2022/08/11 10:44:49;;;;;;;3.33;2.37;;;27.80;55.90;;;;;;5032727;28;20437;-67
2022/08/11 10:47:33;;;;;;;2.70;2.23;;;27.60;55.30;;;;;;5034358;28;20751;-69
2022/08/11 11:01:04;;;;;;;2.90;2.70;;;28.50;52.50;;;;;;5033785;28;20397;-68
2022/08/11 11:03:33;;;;;;;3.70;2.27;;;29.80;51.80;;;;;;5033648;28;20504;-68
2022/08/11 11:06:32;;;;;;;2.40;2.20;;;30.80;49.70;;;;;;5033148;28;20266;-67
2022/08/11 11:09:09;;;;;;;4.17;2.07;;;31.80;47.50;;;;;;5048981;22;20914;-69
2022/08/11 11:19:57;;;;;;;2.47;2.27;;;33.60;42.60;;;;;;5033079;28;20426;-68
2022/08/11 11:22:38;;;;;;;2.50;2.30;;;33.30;42.30;;;;;;5032667;28;20402;-69
2022/08/11 11:25:35;;;;;;;3.03;2.03;;;33.50;41.70;;;;;;5032495;28;20757;-68
2022/08/11 11:28:23;;;;;;;3.10;2.43;;;33.50;41.70;;;;;;5033408;28;20414;-68
2022/08/11 11:31:26;;;;;;;4.40;2.00;;;32.80;42.20;;;;;;5032998;28;20770;-69
2022/08/11 11:34:13;;;;;;;2.60;2.40;;;33.50;41.80;;;;;;4952770;29;20493;-69
2022/08/11 11:36:45;;;;;;;2.37;2.17;;;34.20;40.10;;;;;;5029267;28;20418;-68
2022/08/11 11:39:11;;;;;;;2.37;2.17;;;33.10;40.00;;;;;;5032625;28;20414;-69
2022/08/11 11:41:38;;;;;;;2.30;2.10;;;33.30;40.20;;;;;;5035310;28;20401;-68
2022/08/11 11:44:04;;;;;;;2.10;1.90;;;33.70;39.90;;;;;;5035060;28;20984;-69
2022/08/11 11:46:30;;;;;;;2.60;1.97;;;33.30;38.80;;;;;;5036384;28;20413;-69
2022/08/11 11:48:59;;;;;;;2.50;1.73;;;33.50;39.80;;;;;;5036678;28;20509;-69
2022/08/11 11:51:25;;;;;;;3.73;2.03;;;33.60;39.50;;;;;;5036609;28;20917;-69
2022/08/11 11:53:52;;;;;;;1.97;1.87;;;34.10;39.40;;;;;;5036272;28;20425;-69
2022/08/11 11:56:20;;;;;;;2.47;2.00;;;35.00;37.50;;;;;;5036673;28;20472;-69
2022/08/11 12:01:32;;;;;;;2.70;2.00;;;34.00;38.10;;;;;;5036437;28;21086;-68
2022/08/11 12:04:02;;;;;;;1.70;1.60;;;33.80;38.00;;;;;;5035957;28;20472;-69
2022/08/11 12:06:28;;;;;;;2.83;2.00;;;34.80;36.90;;;;;;5035618;28;20406;-69
2022/08/11 12:08:56;;;;;;;4.10;2.10;;;34.40;37.60;;;;;;5035606;28;20444;-69
2022/08/11 12:14:09;;;;;;;5.53;2.40;;;36.30;34.70;;;;;;5035441;28;20421;-69
2022/08/11 12:16:38;;;;;;;2.53;1.77;;;37.40;33.90;;;;;;5036189;28;20409;-69
2022/08/11 12:19:16;;;;;;;3.03;2.00;;;36.00;34.60;;;;;;5035612;28;20513;-69
2022/08/11 12:27:19;;;;;;;4.83;1.90;;;35.90;34.20;;;;;;5035490;28;20386;-68
2022/08/11 12:29:47;;;;;;;4.03;2.00;;;35.70;34.40;;;;;;5034924;28;20441;-70
2022/08/11 12:32:13;;;;;;;2.40;1.97;;;36.30;33.70;;;;;;5035665;28;20406;-69
2022/08/11 12:34:38;;;;;;;3.90;1.90;;;36.20;34.00;;;;;;5035342;28;20969;-69
2022/08/11 12:37:09;;;;;;;2.80;2.10;;;34.10;36.10;;;;;;5035429;28;20414;-69
2022/08/11 12:45:26;;;;;;;3.37;2.37;;;35.80;34.30;;;;;;5015220;28;20771;-69
2022/08/11 12:53:32;;;;;;;2.00;1.80;;;35.60;34.00;;;;;;5014019;28;20833;-69
2022/08/11 12:58:50;;;;;;;2.73;2.00;;;35.50;34.40;;;;;;5034328;28;20473;-69
2022/08/11 13:06:47;;;;;;;1.70;1.60;;;36.20;32.80;;;;;;5035526;28;20477;-69
2022/08/11 13:09:13;;;;;;;1.80;1.60;;;36.60;32.00;;;;;;5034729;28;20907;-69
2022/08/11 13:14:32;;;;;;;2.10;1.90;;;36.90;31.60;;;;;;5011471;28;20446;-69
2022/08/11 13:19:45;;;;;;;3.83;1.83;;;37.60;31.80;;;;;;5034167;28;20424;-68
2022/08/11 13:22:12;;;;;;;2.23;1.60;;;36.90;31.80;;;;;;5034737;28;20418;-68
2022/08/11 13:24:39;;;;;;;2.63;1.70;;;37.50;32.10;;;;;;5034446;28;20406;-69
2022/08/11 13:27:05;;;;;;;1.90;1.80;;;39.30;30.60;;;;;;5033766;28;20949;-69
2022/08/11 13:29:31;;;;;;;2.33;2.07;;;38.40;30.20;;;;;;5034483;28;20942;-69
2022/08/11 13:31:58;;;;;;;1.90;1.67;;;38.30;30.00;;;;;;5034359;28;20406;-69
2022/08/11 13:34:26;;;;;;;3.37;1.90;;;39.30;29.90;;;;;;5033944;28;20222;-69
2022/08/11 13:36:55;;;;;;;2.70;1.70;;;37.80;30.10;;;;;;5034243;28;20410;-68
2022/08/11 13:39:24;;;;;;;4.10;2.03;;;36.30;32.10;;;;;;5034039;28;20472;-69
2022/08/11 13:41:52;;;;;;;4.80;1.80;;;36.70;31.90;;;;;;5034248;28;20458;-69
2022/08/11 13:44:18;;;;;;;2.43;1.93;;;37.70;31.10;;;;;;5032471;28;20426;-69
2022/08/11 13:46:44;;;;;;;1.90;1.80;;;38.20;30.40;;;;;;5033943;28;20413;-69
2022/08/11 13:49:10;;;;;;;4.13;1.80;;;36.40;31.70;;;;;;5033898;28;20505;-67
2022/08/11 13:51:38;;;;;;;2.83;1.90;;;36.20;32.60;;;;;;5033691;28;20406;-68
2022/08/11 13:54:08;;;;;;;1.50;1.40;;;37.30;31.40;;;;;;5033585;28;20406;-69
2022/08/11 13:56:38;;;;;;;2.50;1.80;;;37.60;30.70;;;;;;5033835;28;20407;-69
2022/08/11 13:59:04;;;;;;;3.10;2.00;;;38.40;29.90;;;;;;5033591;28;20874;-69
2022/08/11 14:01:33;;;;;;;1.73;1.63;;;37.20;30.40;;;;;;5033974;28;20395;-69
2022/08/11 14:04:08;;;;;;;1.63;1.53;;;36.10;32.00;;;;;;5033528;28;20406;-69
2022/08/11 14:06:36;;;;;;;2.00;1.80;;;36.10;31.90;;;;;;5034038;28;20796;-69
2022/08/11 14:09:07;;;;;;;2.00;1.70;;;36.50;31.20;;;;;;5033123;28;20457;-69
2022/08/11 14:14:23;;;;;;;3.57;1.83;;;36.30;31.70;;;;;;5033359;28;20412;-69
2022/08/11 14:16:52;;;;;;;1.80;1.70;;;37.40;30.70;;;;;;5033767;28;20386;-69
2022/08/11 14:19:22;;;;;;;2.30;1.93;;;37.90;30.30;;;;;;5033769;28;20488;-71
2022/08/11 14:22:06;;;;;;;8.43;1.97;;;38.30;29.40;;;;;;5033318;28;20398;-70
2022/08/11 14:24:36;;;;;;;2.03;1.50;;;38.60;29.70;;;;;;5033343;28;20918;-70
2022/08/11 14:27:02;;;;;;;2.07;1.20;;;38.50;29.30;;;;;;5033312;28;20410;-70
2022/08/11 14:29:31;;;;;;;2.30;1.50;;;38.20;29.70;;;;;;5033325;28;20795;-70
2022/08/11 14:32:02;;;;;;;2.37;1.50;;;37.40;29.80;;;;;;5033416;28;20405;-71
2022/08/11 14:34:30;;;;;;;1.60;1.50;;;38.30;29.40;;;;;;5033560;28;20477;-70
2022/08/11 14:36:58;;;;;;;3.03;1.87;;;38.00;29.50;;;;;;5033032;28;20525;-70
2022/08/11 14:39:35;;;;;;;4.23;1.67;;;37.90;29.80;;;;;;5033238;28;20437;-70
2022/08/11 14:48:01;;;;;;;1.73;1.63;;;37.80;29.30;;;;;;5033845;28;20428;-70
2022/08/11 14:50:29;;;;;;;1.60;1.50;;;38.80;29.60;;;;;;5033227;28;20408;-70
2022/08/11 14:52:58;;;;;;;1.90;1.70;;;38.70;29.20;;;;;;5014355;28;20432;-70
2022/08/11 14:58:16;;;;;;;1.90;1.70;;;38.40;28.60;;;;;;5033611;28;20424;-70
2022/08/11 15:00:43;;;;;;;2.73;1.70;;;39.30;29.30;;;;;;5032965;28;20412;-71
2022/08/11 15:03:11;;;;;;;1.70;1.60;;;38.40;28.50;;;;;;5033470;28;20410;-70
2022/08/11 15:05:46;;;;;;;1.97;1.80;;;38.70;28.70;;;;;;5032692;28;20467;-71
2022/08/11 15:08:13;;;;;;;2.33;1.80;;;37.40;29.10;;;;;;5032198;28;20987;-71
2022/08/11 15:10:40;;;;;;;3.20;1.77;;;37.50;29.50;;;;;;5032998;28;20392;-71
2022/08/11 15:13:05;;;;;;;2.40;1.70;;;38.60;28.90;;;;;;5032994;28;20429;-71
2022/08/11 15:18:19;;;;;;;3.07;1.57;;;38.40;28.10;;;;;;5036881;28;20252;-68
2022/08/11 15:37:44;;;;;;;2.17;1.80;;;38.40;28.10;;;;;;5036424;28;20377;-70
2022/08/11 15:46:16;;;;;;;2.03;1.53;;;38.60;28.40;;;;;;5036299;28;20406;-69
2022/08/11 15:48:47;;;;;;;2.90;1.90;;;38.70;27.90;;;;;;5036284;28;20425;-70
2022/08/11 15:51:39;;;;;;;3.00;1.70;;;38.90;28.00;;;;;;5036333;28;20420;-69
2022/08/11 15:54:10;;;;;;;1.90;1.67;;;39.30;27.30;;;;;;5036449;28;20444;-68
2022/08/11 15:56:42;;;;;;;1.73;1.50;;;39.80;27.20;;;;;;5036513;28;20871;-69
2022/08/11 16:04:38;;;;;;;2.40;1.60;;;36.90;29.10;;;;;;5035231;28;20410;-67
2022/08/11 16:07:13;;;;;;;2.40;1.80;;;37.20;29.10;;;;;;5036511;28;20433;-69
2022/08/11 16:09:54;;;;;;;3.63;1.87;;;37.10;29.10;;;;;;5035801;28;20437;-69
2022/08/11 16:12:23;;;;;;;2.13;1.90;;;37.90;29.00;;;;;;5015988;28;20409;-69
2022/08/11 16:17:44;;;;;;;2.07;1.87;;;38.70;28.60;;;;;;5016504;28;20394;-70
2022/08/11 16:20:12;;;;;;;5.73;1.60;;;38.10;29.10;;;;;;5016679;28;20769;-69
2022/08/11 16:22:42;;;;;;;3.33;1.87;;;37.40;29.50;;;;;;5016218;28;20781;-67
2022/08/11 16:25:11;;;;;;;3.67;2.20;;;37.90;29.30;;;;;;5015508;28;20383;-69
2022/08/11 16:27:43;;;;;;;1.80;1.70;;;37.30;29.30;;;;;;5015690;28;20399;-70
2022/08/11 16:30:10;;;;;;;2.27;2.07;;;36.70;29.90;;;;;;5015788;28;20437;-69
2022/08/11 16:32:40;;;;;;;2.27;2.07;;;35.80;30.90;;;;;;5015531;28;20907;-70
2022/08/11 16:40:48;;;;;;;3.40;2.03;;;33.00;33.40;;;;;;5024654;28;20421;-69
2022/08/11 16:49:23;;;;;;;2.37;1.90;;;32.50;34.50;;;;;;5001582;28;20441;-69
2022/08/11 16:51:49;;;;;;;2.40;1.90;;;32.30;34.70;;;;;;5015501;28;20396;-69
2022/08/11 16:54:15;;;;;;;2.70;2.03;;;32.30;34.90;;;;;;5015528;28;20919;-68
2022/08/11 16:56:47;;;;;;;3.83;2.10;;;32.40;34.50;;;;;;4998194;28;20169;-69
2022/08/11 16:59:24;;;;;;;2.40;2.10;;;33.30;33.80;;;;;;5015043;28;20199;-69
2022/08/11 17:02:00;;;;;;;3.70;1.83;;;34.30;32.60;;;;;;5015638;28;20712;-69
2022/08/11 17:13:09;;;;;;;4.60;1.90;;;32.70;34.80;;;;;;5053070;28;20404;-67
2022/08/11 17:18:44;;;;;;;3.10;2.57;;;31.90;35.20;;;;;;5054583;28;20902;-67
2022/08/11 17:21:25;;;;;;;2.57;2.37;;;31.60;36.30;;;;;;5037477;28;20820;-68
2022/08/11 17:23:59;;;;;;;2.73;2.53;;;32.00;35.10;;;;;;5034248;28;20376;-67
2022/08/11 17:26:57;;;;;;;4.80;2.27;;;32.30;34.70;;;;;;5034481;28;20444;-67
2022/08/11 17:29:37;;;;;;;3.30;2.17;;;33.10;33.90;;;;;;5034365;28;20508;-67
2022/08/11 17:37:40;;;;;;;3.50;1.90;;;33.20;33.70;;;;;;5033522;28;20830;-68
2022/08/11 17:40:09;;;;;;;2.10;1.90;;;33.10;34.30;;;;;;5034103;28;20433;-68
2022/08/11 17:48:29;;;;;;;2.70;2.10;;;32.10;35.10;;;;;;4992331;28;20514;-69
2022/08/11 17:59:50;;;;;;;3.17;1.87;;;31.60;36.30;;;;;;4992315;28;20412;-68
2022/08/11 17:59:51;;;;;;;3.60;2.00;;;30.70;37.20;;;;;;5032880;28;20426;-68
2022/08/11 18:05:32;;;;;;;2.90;2.30;;;30.50;37.50;;;;;;5042653;28;20429;-68
